sensor_id;sensor_type;location;lat;lon;timestamp;P1;durP1;ratioP1;P2;durP2;ratioP2
20449;SDS011;10384;51.940;8.432;2023-04-04T00:00:42;4.80;;;1.80;;
20449;SDS011;10384;51.940;8.432;2023-04-04T00:03:07;2.80;;;1.67;;
20449;SDS011;10384;51.940;8.432;2023-04-04T00:05:33;5.20;;;2.07;;
20449;SDS011;10384;51.940;8.432;2023-04-04T00:08:00;2.83;;;1.70;;
20449;SDS011;10384;51.940;8.432;2023-04-04T00:10:26;3.93;;;1.90;;
20449;SDS011;10384;51.940;8.432;2023-04-04T00:12:52;3.90;;;1.60;;
20449;SDS011;10384;51.940;8.432;2023-04-04T00:15:18;5.57;;;2.00;;
20449;SDS011;10384;51.940;8.432;2023-04-04T00:17:44;4.17;;;1.60;;
20449;SDS011;10384;51.940;8.432;2023-04-04T00:20:10;4.43;;;1.77;;
20449;SDS011;10384;51.940;8.432;2023-04-04T00:22:36;2.83;;;1.37;;
20449;SDS011;10384;51.940;8.432;2023-04-04T00:25:02;4.63;;;2.13;;
20449;SDS011;10384;51.940;8.432;2023-04-04T00:27:28;6.97;;;2.20;;
20449;SDS011;10384;51.940;8.432;2023-04-04T00:29:54;3.60;;;1.70;;
20449;SDS011;10384;51.940;8.432;2023-04-04T00:32:20;3.50;;;1.70;;
20449;SDS011;10384;51.940;8.432;2023-04-04T00:34:55;4.70;;;1.83;;
20449;SDS011;10384;51.940;8.432;2023-04-04T00:37:22;3.77;;;1.60;;
20449;SDS011;10384;51.940;8.432;2023-04-04T00:39:47;4.70;;;1.80;;
20449;SDS011;10384;51.940;8.432;2023-04-04T00:42:13;3.43;;;1.50;;
20449;SDS011;10384;51.940;8.432;2023-04-04T00:44:39;3.50;;;1.77;;
20449;SDS011;10384;51.940;8.432;2023-04-04T00:47:05;4.07;;;1.47;;
20449;SDS011;10384;51.940;8.432;2023-04-04T00:49:32;5.17;;;1.97;;
20449;SDS011;10384;51.940;8.432;2023-04-04T00:51:58;4.77;;;1.83;;
20449;SDS011;10384;51.940;8.432;2023-04-04T00:54:24;6.13;;;2.20;;
20449;SDS011;10384;51.940;8.432;2023-04-04T00:56:50;3.37;;;1.60;;
20449;SDS011;10384;51.940;8.432;2023-04-04T00:59:19;4.67;;;1.73;;
20449;SDS011;10384;51.940;8.432;2023-04-04T01:01:46;4.10;;;1.77;;
20449;SDS011;10384;51.940;8.432;2023-04-04T01:04:12;11.63;;;2.20;;
20449;SDS011;10384;51.940;8.432;2023-04-04T01:06:39;4.77;;;1.30;;
20449;SDS011;10384;51.940;8.432;2023-04-04T01:09:05;3.73;;;2.07;;
20449;SDS011;10384;51.940;8.432;2023-04-04T01:11:31;4.67;;;1.80;;
20449;SDS011;10384;51.940;8.432;2023-04-04T01:13:57;5.57;;;1.97;;
20449;SDS011;10384;51.940;8.432;2023-04-04T01:16:23;2.63;;;1.93;;
20449;SDS011;10384;51.940;8.432;2023-04-04T01:18:50;3.43;;;1.77;;
20449;SDS011;10384;51.940;8.432;2023-04-04T01:21:17;5.43;;;1.73;;
20449;SDS011;10384;51.940;8.432;2023-04-04T01:23:58;3.70;;;1.97;;
20449;SDS011;10384;51.940;8.432;2023-04-04T01:26:25;2.97;;;1.77;;
20449;SDS011;10384;51.940;8.432;2023-04-04T01:28:52;3.93;;;1.53;;
20449;SDS011;10384;51.940;8.432;2023-04-04T01:31:20;4.93;;;1.93;;
20449;SDS011;10384;51.940;8.432;2023-04-04T01:33:58;2.80;;;1.70;;
20449;SDS011;10384;51.940;8.432;2023-04-04T01:39:04;4.47;;;1.80;;
20449;SDS011;10384;51.940;8.432;2023-04-04T01:41:33;6.17;;;2.20;;
20449;SDS011;10384;51.940;8.432;2023-04-04T01:43:59;3.13;;;1.97;;
20449;SDS011;10384;51.940;8.432;2023-04-04T01:46:26;2.77;;;1.70;;
20449;SDS011;10384;51.940;8.432;2023-04-04T01:48:52;3.30;;;1.87;;
20449;SDS011;10384;51.940;8.432;2023-04-04T01:51:18;3.83;;;1.50;;
20449;SDS011;10384;51.940;8.432;2023-04-04T01:53:44;5.53;;;1.67;;
20449;SDS011;10384;51.940;8.432;2023-04-04T01:56:10;3.07;;;1.60;;
20449;SDS011;10384;51.940;8.432;2023-04-04T01:58:37;4.50;;;1.87;;
20449;SDS011;10384;51.940;8.432;2023-04-04T02:01:03;3.60;;;1.60;;
20449;SDS011;10384;51.940;8.432;2023-04-04T02:03:29;4.73;;;1.80;;
20449;SDS011;10384;51.940;8.432;2023-04-04T02:05:55;4.60;;;2.30;;
20449;SDS011;10384;51.940;8.432;2023-04-04T02:08:21;3.73;;;1.50;;
20449;SDS011;10384;51.940;8.432;2023-04-04T02:10:47;6.10;;;1.63;;
20449;SDS011;10384;51.940;8.432;2023-04-04T02:13:13;5.57;;;1.83;;
20449;SDS011;10384;51.940;8.432;2023-04-04T02:15:39;8.83;;;1.97;;
20449;SDS011;10384;51.940;8.432;2023-04-04T02:18:05;3.00;;;1.43;;
20449;SDS011;10384;51.940;8.432;2023-04-04T02:20:31;2.63;;;1.60;;
20449;SDS011;10384;51.940;8.432;2023-04-04T02:22:57;4.07;;;1.60;;
20449;SDS011;10384;51.940;8.432;2023-04-04T02:25:23;2.43;;;1.50;;
20449;SDS011;10384;51.940;8.432;2023-04-04T02:27:50;4.63;;;1.63;;
20449;SDS011;10384;51.940;8.432;2023-04-04T02:30:16;3.30;;;1.80;;
20449;SDS011;10384;51.940;8.432;2023-04-04T02:32:43;4.77;;;1.70;;
20449;SDS011;10384;51.940;8.432;2023-04-04T02:35:09;3.07;;;1.73;;
20449;SDS011;10384;51.940;8.432;2023-04-04T02:37:35;5.70;;;1.70;;
20449;SDS011;10384;51.940;8.432;2023-04-04T02:40:01;6.03;;;2.20;;
20449;SDS011;10384;51.940;8.432;2023-04-04T02:42:28;4.37;;;1.53;;
20449;SDS011;10384;51.940;8.432;2023-04-04T02:44:54;2.93;;;1.70;;
20449;SDS011;10384;51.940;8.432;2023-04-04T02:47:20;3.53;;;1.80;;
20449;SDS011;10384;51.940;8.432;2023-04-04T02:49:46;4.67;;;1.87;;
20449;SDS011;10384;51.940;8.432;2023-04-04T02:52:12;6.13;;;1.90;;
20449;SDS011;10384;51.940;8.432;2023-04-04T02:54:38;7.93;;;1.87;;
20449;SDS011;10384;51.940;8.432;2023-04-04T02:57:04;5.33;;;1.67;;
20449;SDS011;10384;51.940;8.432;2023-04-04T02:59:30;5.53;;;1.80;;
20449;SDS011;10384;51.940;8.432;2023-04-04T03:01:56;3.90;;;1.37;;
20449;SDS011;10384;51.940;8.432;2023-04-04T03:04:22;2.77;;;1.50;;
20449;SDS011;10384;51.940;8.432;2023-04-04T03:06:49;2.73;;;1.50;;
20449;SDS011;10384;51.940;8.432;2023-04-04T03:09:16;5.90;;;1.50;;
20449;SDS011;10384;51.940;8.432;2023-04-04T03:11:42;2.63;;;1.40;;
20449;SDS011;10384;51.940;8.432;2023-04-04T03:14:08;1.80;;;1.30;;
20449;SDS011;10384;51.940;8.432;2023-04-04T03:16:34;4.40;;;1.50;;
20449;SDS011;10384;51.940;8.432;2023-04-04T03:19:00;1.93;;;1.50;;
20449;SDS011;10384;51.940;8.432;2023-04-04T03:21:27;4.03;;;1.70;;
20449;SDS011;10384;51.940;8.432;2023-04-04T03:23:53;7.73;;;1.33;;
20449;SDS011;10384;51.940;8.432;2023-04-04T03:26:19;3.10;;;1.70;;
20449;SDS011;10384;51.940;8.432;2023-04-04T03:28:45;5.27;;;2.10;;
20449;SDS011;10384;51.940;8.432;2023-04-04T03:31:11;5.73;;;2.27;;
20449;SDS011;10384;51.940;8.432;2023-04-04T03:33:37;3.80;;;1.90;;
20449;SDS011;10384;51.940;8.432;2023-04-04T03:36:10;7.30;;;2.47;;
20449;SDS011;10384;51.940;8.432;2023-04-04T03:38:36;9.80;;;2.80;;
20449;SDS011;10384;51.940;8.432;2023-04-04T03:41:03;5.17;;;2.60;;
20449;SDS011;10384;51.940;8.432;2023-04-04T03:43:29;5.93;;;2.73;;
20449;SDS011;10384;51.940;8.432;2023-04-04T03:46:00;10.63;;;3.20;;
20449;SDS011;10384;51.940;8.432;2023-04-04T03:48:26;11.27;;;2.77;;
20449;SDS011;10384;51.940;8.432;2023-04-04T03:50:52;11.43;;;3.10;;
20449;SDS011;10384;51.940;8.432;2023-04-04T03:53:18;13.70;;;2.93;;
20449;SDS011;10384;51.940;8.432;2023-04-04T03:55:44;7.60;;;2.60;;
20449;SDS011;10384;51.940;8.432;2023-04-04T03:58:10;5.57;;;2.00;;
20449;SDS011;10384;51.940;8.432;2023-04-04T04:00:36;6.03;;;1.90;;
20449;SDS011;10384;51.940;8.432;2023-04-04T04:03:02;3.73;;;1.80;;
20449;SDS011;10384;51.940;8.432;2023-04-04T04:05:28;3.57;;;1.60;;
20449;SDS011;10384;51.940;8.432;2023-04-04T04:07:54;3.10;;;1.40;;
20449;SDS011;10384;51.940;8.432;2023-04-04T04:10:20;5.97;;;1.67;;
20449;SDS011;10384;51.940;8.432;2023-04-04T04:12:46;3.83;;;1.50;;
20449;SDS011;10384;51.940;8.432;2023-04-04T04:15:13;6.13;;;2.00;;
20449;SDS011;10384;51.940;8.432;2023-04-04T04:17:39;4.00;;;1.60;;
20449;SDS011;10384;51.940;8.432;2023-04-04T04:20:08;5.57;;;1.83;;
20449;SDS011;10384;51.940;8.432;2023-04-04T04:22:35;3.87;;;1.67;;
20449;SDS011;10384;51.940;8.432;2023-04-04T04:25:02;2.80;;;1.43;;
20449;SDS011;10384;51.940;8.432;2023-04-04T04:27:28;4.47;;;1.63;;
20449;SDS011;10384;51.940;8.432;2023-04-04T04:29:54;3.60;;;1.47;;
20449;SDS011;10384;51.940;8.432;2023-04-04T04:32:21;5.07;;;1.67;;
20449;SDS011;10384;51.940;8.432;2023-04-04T04:34:47;3.67;;;1.67;;
20449;SDS011;10384;51.940;8.432;2023-04-04T04:37:13;4.03;;;1.77;;
20449;SDS011;10384;51.940;8.432;2023-04-04T04:39:39;4.17;;;1.80;;
20449;SDS011;10384;51.940;8.432;2023-04-04T04:42:05;5.97;;;2.20;;
20449;SDS011;10384;51.940;8.432;2023-04-04T04:44:31;7.57;;;2.13;;
20449;SDS011;10384;51.940;8.432;2023-04-04T04:46:57;4.63;;;1.70;;
20449;SDS011;10384;51.940;8.432;2023-04-04T04:49:23;5.67;;;1.90;;
20449;SDS011;10384;51.940;8.432;2023-04-04T04:51:49;7.70;;;2.07;;
20449;SDS011;10384;51.940;8.432;2023-04-04T04:54:15;5.83;;;2.10;;
20449;SDS011;10384;51.940;8.432;2023-04-04T04:56:41;4.17;;;2.60;;
20449;SDS011;10384;51.940;8.432;2023-04-04T04:59:07;3.30;;;1.60;;
20449;SDS011;10384;51.940;8.432;2023-04-04T05:01:35;3.43;;;1.40;;
20449;SDS011;10384;51.940;8.432;2023-04-04T05:04:01;5.40;;;1.53;;
20449;SDS011;10384;51.940;8.432;2023-04-04T05:06:27;3.43;;;1.70;;
20449;SDS011;10384;51.940;8.432;2023-04-04T05:08:53;5.47;;;1.80;;
20449;SDS011;10384;51.940;8.432;2023-04-04T05:11:19;9.03;;;2.20;;
20449;SDS011;10384;51.940;8.432;2023-04-04T05:13:45;4.07;;;1.80;;
20449;SDS011;10384;51.940;8.432;2023-04-04T05:16:12;5.30;;;1.87;;
20449;SDS011;10384;51.940;8.432;2023-04-04T05:18:38;5.27;;;2.40;;
20449;SDS011;10384;51.940;8.432;2023-04-04T05:21:04;10.00;;;2.90;;
20449;SDS011;10384;51.940;8.432;2023-04-04T05:23:30;5.73;;;2.67;;
20449;SDS011;10384;51.940;8.432;2023-04-04T05:25:56;4.37;;;2.10;;
20449;SDS011;10384;51.940;8.432;2023-04-04T05:28:22;7.47;;;2.57;;
20449;SDS011;10384;51.940;8.432;2023-04-04T05:30:48;9.10;;;3.53;;
20449;SDS011;10384;51.940;8.432;2023-04-04T05:33:14;47.93;;;13.30;;
20449;SDS011;10384;51.940;8.432;2023-04-04T05:35:40;49.07;;;13.87;;
20449;SDS011;10384;51.940;8.432;2023-04-04T05:38:06;62.77;;;17.10;;
20449;SDS011;10384;51.940;8.432;2023-04-04T05:40:32;67.37;;;16.87;;
20449;SDS011;10384;51.940;8.432;2023-04-04T05:42:59;48.37;;;12.43;;
20449;SDS011;10384;51.940;8.432;2023-04-04T05:45:28;39.10;;;8.77;;
20449;SDS011;10384;51.940;8.432;2023-04-04T05:47:54;25.03;;;6.97;;
20449;SDS011;10384;51.940;8.432;2023-04-04T05:50:20;13.10;;;4.07;;
20449;SDS011;10384;51.940;8.432;2023-04-04T05:52:46;10.00;;;4.67;;
20449;SDS011;10384;51.940;8.432;2023-04-04T05:55:12;18.47;;;4.87;;
20449;SDS011;10384;51.940;8.432;2023-04-04T05:57:45;10.90;;;3.93;;
20449;SDS011;10384;51.940;8.432;2023-04-04T06:00:12;13.87;;;3.80;;
20449;SDS011;10384;51.940;8.432;2023-04-04T06:02:38;7.67;;;3.17;;
20449;SDS011;10384;51.940;8.432;2023-04-04T06:05:04;12.30;;;3.37;;
20449;SDS011;10384;51.940;8.432;2023-04-04T06:07:30;5.60;;;2.40;;
20449;SDS011;10384;51.940;8.432;2023-04-04T06:09:56;7.47;;;2.40;;
20449;SDS011;10384;51.940;8.432;2023-04-04T06:12:22;7.70;;;3.10;;
20449;SDS011;10384;51.940;8.432;2023-04-04T06:14:48;9.30;;;2.43;;
20449;SDS011;10384;51.940;8.432;2023-04-04T06:17:14;4.37;;;2.00;;
20449;SDS011;10384;51.940;8.432;2023-04-04T06:19:40;5.93;;;2.40;;
20449;SDS011;10384;51.940;8.432;2023-04-04T06:22:06;5.93;;;2.10;;
20449;SDS011;10384;51.940;8.432;2023-04-04T06:24:32;5.10;;;2.30;;
20449;SDS011;10384;51.940;8.432;2023-04-04T06:26:58;3.10;;;1.90;;
20449;SDS011;10384;51.940;8.432;2023-04-04T06:29:24;3.80;;;1.97;;
20449;SDS011;10384;51.940;8.432;2023-04-04T06:31:50;6.37;;;1.90;;
20449;SDS011;10384;51.940;8.432;2023-04-04T06:34:16;5.77;;;2.20;;
20449;SDS011;10384;51.940;8.432;2023-04-04T06:36:42;4.83;;;2.03;;
20449;SDS011;10384;51.940;8.432;2023-04-04T06:39:08;4.70;;;2.40;;
20449;SDS011;10384;51.940;8.432;2023-04-04T06:41:34;7.27;;;2.73;;
20449;SDS011;10384;51.940;8.432;2023-04-04T06:44:00;8.47;;;2.93;;
20449;SDS011;10384;51.940;8.432;2023-04-04T06:46:26;6.23;;;2.50;;
20449;SDS011;10384;51.940;8.432;2023-04-04T06:48:54;6.67;;;2.70;;
20449;SDS011;10384;51.940;8.432;2023-04-04T06:51:20;11.40;;;2.43;;
20449;SDS011;10384;51.940;8.432;2023-04-04T06:53:47;6.30;;;2.60;;
20449;SDS011;10384;51.940;8.432;2023-04-04T06:56:13;3.30;;;1.93;;
20449;SDS011;10384;51.940;8.432;2023-04-04T06:58:39;3.43;;;2.10;;
20449;SDS011;10384;51.940;8.432;2023-04-04T07:01:06;5.50;;;2.37;;
20449;SDS011;10384;51.940;8.432;2023-04-04T07:03:31;6.27;;;1.87;;
20449;SDS011;10384;51.940;8.432;2023-04-04T07:06:00;5.03;;;1.93;;
20449;SDS011;10384;51.940;8.432;2023-04-04T07:08:28;4.80;;;2.13;;
20449;SDS011;10384;51.940;8.432;2023-04-04T07:10:54;4.70;;;1.90;;
20449;SDS011;10384;51.940;8.432;2023-04-04T07:13:20;2.67;;;1.47;;
20449;SDS011;10384;51.940;8.432;2023-04-04T07:15:47;3.97;;;1.37;;
20449;SDS011;10384;51.940;8.432;2023-04-04T07:18:14;3.50;;;1.53;;
20449;SDS011;10384;51.940;8.432;2023-04-04T07:20:40;2.47;;;1.57;;
20449;SDS011;10384;51.940;8.432;2023-04-04T07:23:07;3.20;;;1.20;;
20449;SDS011;10384;51.940;8.432;2023-04-04T07:25:34;4.37;;;1.23;;
20449;SDS011;10384;51.940;8.432;2023-04-04T07:28:00;4.23;;;1.10;;
20449;SDS011;10384;51.940;8.432;2023-04-04T07:30:26;3.20;;;1.30;;
20449;SDS011;10384;51.940;8.432;2023-04-04T07:33:00;4.37;;;1.23;;
20449;SDS011;10384;51.940;8.432;2023-04-04T07:35:26;2.40;;;1.00;;
20449;SDS011;10384;51.940;8.432;2023-04-04T07:37:53;5.30;;;1.30;;
20449;SDS011;10384;51.940;8.432;2023-04-04T07:40:19;3.23;;;1.10;;
20449;SDS011;10384;51.940;8.432;2023-04-04T07:42:45;1.97;;;1.07;;
20449;SDS011;10384;51.940;8.432;2023-04-04T07:45:14;3.63;;;1.00;;
20449;SDS011;10384;51.940;8.432;2023-04-04T07:47:41;2.80;;;1.00;;
20449;SDS011;10384;51.940;8.432;2023-04-04T07:50:08;1.67;;;1.07;;
20449;SDS011;10384;51.940;8.432;2023-04-04T07:52:35;4.40;;;1.10;;
20449;SDS011;10384;51.940;8.432;2023-04-04T07:55:01;1.77;;;1.10;;
20449;SDS011;10384;51.940;8.432;2023-04-04T07:57:27;2.60;;;1.20;;
20449;SDS011;10384;51.940;8.432;2023-04-04T07:59:53;2.57;;;1.30;;
20449;SDS011;10384;51.940;8.432;2023-04-04T08:02:19;2.83;;;0.90;;
20449;SDS011;10384;51.940;8.432;2023-04-04T08:04:45;1.13;;;0.97;;
20449;SDS011;10384;51.940;8.432;2023-04-04T08:07:11;1.67;;;1.00;;
20449;SDS011;10384;51.940;8.432;2023-04-04T08:09:37;2.80;;;1.10;;
20449;SDS011;10384;51.940;8.432;2023-04-04T08:12:03;4.23;;;1.10;;
20449;SDS011;10384;51.940;8.432;2023-04-04T08:14:32;2.13;;;0.90;;
20449;SDS011;10384;51.940;8.432;2023-04-04T08:16:58;2.47;;;1.17;;
20449;SDS011;10384;51.940;8.432;2023-04-04T08:19:25;1.23;;;0.80;;
20449;SDS011;10384;51.940;8.432;2023-04-04T08:21:51;4.27;;;1.07;;
20449;SDS011;10384;51.940;8.432;2023-04-04T08:24:17;1.33;;;1.00;;
20449;SDS011;10384;51.940;8.432;2023-04-04T08:26:46;7.10;;;1.20;;
20449;SDS011;10384;51.940;8.432;2023-04-04T08:29:12;6.40;;;1.67;;
20449;SDS011;10384;51.940;8.432;2023-04-04T08:31:38;3.67;;;1.10;;
20449;SDS011;10384;51.940;8.432;2023-04-04T08:34:05;1.77;;;1.20;;
20449;SDS011;10384;51.940;8.432;2023-04-04T08:36:32;4.40;;;1.77;;
20449;SDS011;10384;51.940;8.432;2023-04-04T08:38:58;2.83;;;1.17;;
20449;SDS011;10384;51.940;8.432;2023-04-04T08:41:25;2.47;;;1.20;;
20449;SDS011;10384;51.940;8.432;2023-04-04T08:43:52;6.47;;;1.30;;
20449;SDS011;10384;51.940;8.432;2023-04-04T08:46:21;4.03;;;1.60;;
20449;SDS011;10384;51.940;8.432;2023-04-04T08:48:48;1.97;;;1.17;;
20449;SDS011;10384;51.940;8.432;2023-04-04T08:51:15;6.33;;;1.60;;
20449;SDS011;10384;51.940;8.432;2023-04-04T08:53:42;3.07;;;1.23;;
20449;SDS011;10384;51.940;8.432;2023-04-04T08:56:08;4.87;;;1.60;;
20449;SDS011;10384;51.940;8.432;2023-04-04T08:58:35;5.37;;;1.70;;
20449;SDS011;10384;51.940;8.432;2023-04-04T09:01:06;2.40;;;1.47;;
20449;SDS011;10384;51.940;8.432;2023-04-04T09:03:32;4.23;;;1.40;;
20449;SDS011;10384;51.940;8.432;2023-04-04T09:06:00;8.53;;;1.67;;
20449;SDS011;10384;51.940;8.432;2023-04-04T09:08:29;2.53;;;1.33;;
20449;SDS011;10384;51.940;8.432;2023-04-04T09:10:56;5.60;;;1.20;;
20449;SDS011;10384;51.940;8.432;2023-04-04T09:13:22;3.00;;;1.27;;
20449;SDS011;10384;51.940;8.432;2023-04-04T09:15:52;4.37;;;1.10;;
20449;SDS011;10384;51.940;8.432;2023-04-04T09:18:18;4.13;;;1.40;;
20449;SDS011;10384;51.940;8.432;2023-04-04T09:20:45;6.53;;;1.93;;
20449;SDS011;10384;51.940;8.432;2023-04-04T09:23:15;2.47;;;0.90;;
20449;SDS011;10384;51.940;8.432;2023-04-04T09:25:48;5.80;;;1.30;;
20449;SDS011;10384;51.940;8.432;2023-04-04T09:28:15;2.73;;;1.37;;
20449;SDS011;10384;51.940;8.432;2023-04-04T09:30:41;2.90;;;1.30;;
20449;SDS011;10384;51.940;8.432;2023-04-04T09:33:11;4.70;;;1.30;;
20449;SDS011;10384;51.940;8.432;2023-04-04T09:35:44;2.83;;;1.50;;
20449;SDS011;10384;51.940;8.432;2023-04-04T09:38:10;2.40;;;1.20;;
20449;SDS011;10384;51.940;8.432;2023-04-04T09:40:38;3.43;;;1.20;;
20449;SDS011;10384;51.940;8.432;2023-04-04T09:43:06;4.23;;;1.50;;
20449;SDS011;10384;51.940;8.432;2023-04-04T09:45:33;3.33;;;1.20;;
20449;SDS011;10384;51.940;8.432;2023-04-04T09:48:00;4.03;;;1.30;;
20449;SDS011;10384;51.940;8.432;2023-04-04T09:50:26;5.40;;;1.33;;
20449;SDS011;10384;51.940;8.432;2023-04-04T09:52:56;4.60;;;1.70;;
20449;SDS011;10384;51.940;8.432;2023-04-04T09:55:33;5.33;;;1.70;;
20449;SDS011;10384;51.940;8.432;2023-04-04T09:58:45;3.27;;;1.70;;
20449;SDS011;10384;51.940;8.432;2023-04-04T10:00:47;5.57;;;1.80;;
20449;SDS011;10384;51.940;8.432;2023-04-04T10:03:13;5.00;;;1.60;;
20449;SDS011;10384;51.940;8.432;2023-04-04T10:05:40;3.50;;;1.03;;
20449;SDS011;10384;51.940;8.432;2023-04-04T10:08:20;5.83;;;1.30;;
20449;SDS011;10384;51.940;8.432;2023-04-04T10:10:47;1.93;;;1.00;;
20449;SDS011;10384;51.940;8.432;2023-04-04T10:13:18;3.57;;;1.30;;
20449;SDS011;10384;51.940;8.432;2023-04-04T10:15:47;3.33;;;1.50;;
20449;SDS011;10384;51.940;8.432;2023-04-04T10:18:13;1.97;;;1.20;;
20449;SDS011;10384;51.940;8.432;2023-04-04T10:20:41;1.87;;;0.83;;
20449;SDS011;10384;51.940;8.432;2023-04-04T10:23:07;3.63;;;1.13;;
20449;SDS011;10384;51.940;8.432;2023-04-04T10:25:33;2.83;;;1.50;;
20449;SDS011;10384;51.940;8.432;2023-04-04T10:28:01;4.87;;;1.30;;
20449;SDS011;10384;51.940;8.432;2023-04-04T10:30:27;4.10;;;1.97;;
20449;SDS011;10384;51.940;8.432;2023-04-04T10:35:48;2.07;;;1.17;;
20449;SDS011;10384;51.940;8.432;2023-04-04T10:38:16;3.60;;;1.70;;
20449;SDS011;10384;51.940;8.432;2023-04-04T10:40:45;3.10;;;1.40;;
20449;SDS011;10384;51.940;8.432;2023-04-04T10:43:13;3.17;;;1.70;;
20449;SDS011;10384;51.940;8.432;2023-04-04T10:45:40;3.40;;;1.20;;
20449;SDS011;10384;51.940;8.432;2023-04-04T10:48:06;2.63;;;1.40;;
20449;SDS011;10384;51.940;8.432;2023-04-04T10:50:34;2.80;;;1.20;;
20449;SDS011;10384;51.940;8.432;2023-04-04T10:53:00;7.97;;;1.50;;
20449;SDS011;10384;51.940;8.432;2023-04-04T10:55:28;3.87;;;1.30;;
20449;SDS011;10384;51.940;8.432;2023-04-04T10:57:55;3.13;;;1.30;;
20449;SDS011;10384;51.940;8.432;2023-04-04T11:00:22;4.70;;;1.60;;
20449;SDS011;10384;51.940;8.432;2023-04-04T11:02:58;5.60;;;1.50;;
20449;SDS011;10384;51.940;8.432;2023-04-04T11:05:26;4.70;;;1.50;;
20449;SDS011;10384;51.940;8.432;2023-04-04T11:10:22;4.47;;;1.40;;
20449;SDS011;10384;51.940;8.432;2023-04-04T11:12:51;3.53;;;1.60;;
20449;SDS011;10384;51.940;8.432;2023-04-04T11:15:24;2.63;;;1.33;;
20449;SDS011;10384;51.940;8.432;2023-04-04T11:17:55;2.83;;;1.40;;
20449;SDS011;10384;51.940;8.432;2023-04-04T11:20:28;4.17;;;1.80;;
20449;SDS011;10384;51.940;8.432;2023-04-04T11:23:01;6.27;;;2.00;;
20449;SDS011;10384;51.940;8.432;2023-04-04T11:27:57;3.03;;;2.07;;
20449;SDS011;10384;51.940;8.432;2023-04-04T11:30:26;3.40;;;1.50;;
20449;SDS011;10384;51.940;8.432;2023-04-04T11:32:55;4.03;;;1.60;;
20449;SDS011;10384;51.940;8.432;2023-04-04T11:35:22;4.20;;;1.70;;
20449;SDS011;10384;51.940;8.432;2023-04-04T11:40:20;4.90;;;2.10;;
20449;SDS011;10384;51.940;8.432;2023-04-04T11:42:58;4.73;;;2.00;;
20449;SDS011;10384;51.940;8.432;2023-04-04T11:45:28;4.07;;;1.57;;
20449;SDS011;10384;51.940;8.432;2023-04-04T11:47:56;5.57;;;2.73;;
20449;SDS011;10384;51.940;8.432;2023-04-04T11:50:23;5.73;;;3.40;;
20449;SDS011;10384;51.940;8.432;2023-04-04T11:52:49;6.00;;;2.10;;
20449;SDS011;10384;51.940;8.432;2023-04-04T11:55:16;4.83;;;1.70;;
20449;SDS011;10384;51.940;8.432;2023-04-04T11:57:42;3.27;;;1.80;;
20449;SDS011;10384;51.940;8.432;2023-04-04T12:00:09;4.83;;;1.50;;
20449;SDS011;10384;51.940;8.432;2023-04-04T12:02:36;7.23;;;2.10;;
20449;SDS011;10384;51.940;8.432;2023-04-04T12:05:03;4.93;;;1.70;;
20449;SDS011;10384;51.940;8.432;2023-04-04T12:07:30;4.43;;;1.70;;
20449;SDS011;10384;51.940;8.432;2023-04-04T12:09:56;4.97;;;2.00;;
20449;SDS011;10384;51.940;8.432;2023-04-04T12:12:23;4.47;;;1.83;;
20449;SDS011;10384;51.940;8.432;2023-04-04T12:14:51;4.40;;;1.70;;
20449;SDS011;10384;51.940;8.432;2023-04-04T12:17:18;4.60;;;1.70;;
20449;SDS011;10384;51.940;8.432;2023-04-04T12:19:44;5.83;;;2.27;;
20449;SDS011;10384;51.940;8.432;2023-04-04T12:22:10;3.47;;;1.60;;
20449;SDS011;10384;51.940;8.432;2023-04-04T12:24:36;4.73;;;2.50;;
20449;SDS011;10384;51.940;8.432;2023-04-04T12:27:02;5.03;;;2.00;;
20449;SDS011;10384;51.940;8.432;2023-04-04T12:29:29;3.57;;;1.90;;
20449;SDS011;10384;51.940;8.432;2023-04-04T12:32:05;3.40;;;1.80;;
20449;SDS011;10384;51.940;8.432;2023-04-04T12:34:38;3.13;;;2.00;;
20449;SDS011;10384;51.940;8.432;2023-04-04T12:37:07;6.33;;;1.83;;
20449;SDS011;10384;51.940;8.432;2023-04-04T12:39:34;5.47;;;1.70;;
20449;SDS011;10384;51.940;8.432;2023-04-04T12:44:33;3.00;;;1.30;;
20449;SDS011;10384;51.940;8.432;2023-04-04T12:47:00;4.87;;;1.73;;
20449;SDS011;10384;51.940;8.432;2023-04-04T12:49:28;5.90;;;1.73;;
20449;SDS011;10384;51.940;8.432;2023-04-04T12:51:54;5.13;;;2.60;;
20449;SDS011;10384;51.940;8.432;2023-04-04T12:54:41;6.17;;;2.13;;
20449;SDS011;10384;51.940;8.432;2023-04-04T12:57:07;3.77;;;1.63;;
20449;SDS011;10384;51.940;8.432;2023-04-04T12:59:35;4.17;;;1.80;;
20449;SDS011;10384;51.940;8.432;2023-04-04T13:02:06;4.57;;;1.90;;
20449;SDS011;10384;51.940;8.432;2023-04-04T13:04:32;5.33;;;1.53;;
20449;SDS011;10384;51.940;8.432;2023-04-04T13:06:59;4.73;;;1.63;;
20449;SDS011;10384;51.940;8.432;2023-04-04T13:09:27;4.03;;;1.70;;
20449;SDS011;10384;51.940;8.432;2023-04-04T13:15:11;4.27;;;1.53;;
20449;SDS011;10384;51.940;8.432;2023-04-04T13:17:12;3.10;;;1.50;;
20449;SDS011;10384;51.940;8.432;2023-04-04T13:19:38;4.13;;;1.33;;
20449;SDS011;10384;51.940;8.432;2023-04-04T13:22:06;3.27;;;1.60;;
20449;SDS011;10384;51.940;8.432;2023-04-04T13:24:32;4.07;;;1.67;;
20449;SDS011;10384;51.940;8.432;2023-04-04T13:26:58;2.57;;;1.50;;
20449;SDS011;10384;51.940;8.432;2023-04-04T13:29:25;3.37;;;1.53;;
20449;SDS011;10384;51.940;8.432;2023-04-04T13:31:51;4.20;;;2.00;;
20449;SDS011;10384;51.940;8.432;2023-04-04T13:34:19;4.77;;;1.60;;
20449;SDS011;10384;51.940;8.432;2023-04-04T13:36:45;3.50;;;1.80;;
20449;SDS011;10384;51.940;8.432;2023-04-04T13:39:11;4.87;;;1.50;;
20449;SDS011;10384;51.940;8.432;2023-04-04T13:41:37;2.43;;;1.50;;
20449;SDS011;10384;51.940;8.432;2023-04-04T13:44:03;3.93;;;1.80;;
20449;SDS011;10384;51.940;8.432;2023-04-04T13:46:29;3.80;;;1.60;;
20449;SDS011;10384;51.940;8.432;2023-04-04T13:48:55;5.33;;;2.00;;
20449;SDS011;10384;51.940;8.432;2023-04-04T13:51:21;5.27;;;1.70;;
20449;SDS011;10384;51.940;8.432;2023-04-04T13:53:48;3.07;;;1.80;;
20449;SDS011;10384;51.940;8.432;2023-04-04T13:56:14;3.47;;;1.80;;
20449;SDS011;10384;51.940;8.432;2023-04-04T13:58:41;4.70;;;1.60;;
20449;SDS011;10384;51.940;8.432;2023-04-04T14:01:07;2.93;;;1.80;;
20449;SDS011;10384;51.940;8.432;2023-04-04T14:03:33;2.77;;;1.53;;
20449;SDS011;10384;51.940;8.432;2023-04-04T14:05:59;3.87;;;1.60;;
20449;SDS011;10384;51.940;8.432;2023-04-04T14:08:25;6.27;;;2.00;;
20449;SDS011;10384;51.940;8.432;2023-04-04T14:10:51;3.47;;;2.10;;
20449;SDS011;10384;51.940;8.432;2023-04-04T14:13:17;6.30;;;2.17;;
20449;SDS011;10384;51.940;8.432;2023-04-04T14:15:44;3.10;;;1.50;;
20449;SDS011;10384;51.940;8.432;2023-04-04T14:18:10;5.10;;;1.90;;
20449;SDS011;10384;51.940;8.432;2023-04-04T14:20:36;2.63;;;1.70;;
20449;SDS011;10384;51.940;8.432;2023-04-04T14:23:02;3.33;;;1.80;;
20449;SDS011;10384;51.940;8.432;2023-04-04T14:25:29;5.90;;;2.03;;
20449;SDS011;10384;51.940;8.432;2023-04-04T14:27:55;3.93;;;1.80;;
20449;SDS011;10384;51.940;8.432;2023-04-04T14:30:21;3.33;;;1.73;;
20449;SDS011;10384;51.940;8.432;2023-04-04T14:32:47;4.40;;;2.30;;
20449;SDS011;10384;51.940;8.432;2023-04-04T14:35:15;4.10;;;1.83;;
20449;SDS011;10384;51.940;8.432;2023-04-04T14:37:41;5.63;;;1.80;;
20449;SDS011;10384;51.940;8.432;2023-04-04T14:40:07;9.63;;;2.30;;
20449;SDS011;10384;51.940;8.432;2023-04-04T14:42:33;2.77;;;1.83;;
20449;SDS011;10384;51.940;8.432;2023-04-04T14:45:00;5.83;;;2.00;;
20449;SDS011;10384;51.940;8.432;2023-04-04T14:47:31;3.40;;;2.00;;
20449;SDS011;10384;51.940;8.432;2023-04-04T14:49:58;3.33;;;1.83;;
20449;SDS011;10384;51.940;8.432;2023-04-04T14:52:24;3.23;;;1.90;;
20449;SDS011;10384;51.940;8.432;2023-04-04T14:54:52;4.57;;;2.00;;
20449;SDS011;10384;51.940;8.432;2023-04-04T14:57:18;3.73;;;1.80;;
20449;SDS011;10384;51.940;8.432;2023-04-04T14:59:44;7.97;;;2.30;;
20449;SDS011;10384;51.940;8.432;2023-04-04T15:02:11;3.33;;;2.10;;
20449;SDS011;10384;51.940;8.432;2023-04-04T15:04:37;5.03;;;1.97;;